sensor_id;sensor_type;location;lat;lon;timestamp;temperature;humidity
69776;DHT22;57049;51.450;-2.516;2023-03-01T00:01:17;5.63;84.01
69776;DHT22;57049;51.450;-2.516;2023-03-01T00:03:43;5.65;84.47
69776;DHT22;57049;51.450;-2.516;2023-03-01T00:06:09;5.65;84.62
69776;DHT22;57049;51.450;-2.516;2023-03-01T00:08:36;5.60;84.71
69776;DHT22;57049;51.450;-2.516;2023-03-01T00:13:36;5.60;85.19
69776;DHT22;57049;51.450;-2.516;2023-03-01T00:16:06;5.56;85.04
69776;DHT22;57049;51.450;-2.516;2023-03-01T00:18:32;5.59;84.97
69776;DHT22;57049;51.450;-2.516;2023-03-01T00:20:58;5.57;84.94
69776;DHT22;57049;51.450;-2.516;2023-03-01T00:23:24;5.49;85.31
69776;DHT22;57049;51.450;-2.516;2023-03-01T00:25:50;5.46;84.83
69776;DHT22;57049;51.450;-2.516;2023-03-01T00:28:17;5.53;85.13
69776;DHT22;57049;51.450;-2.516;2023-03-01T00:30:43;5.50;85.13
69776;DHT22;57049;51.450;-2.516;2023-03-01T00:33:09;5.49;84.92
69776;DHT22;57049;51.450;-2.516;2023-03-01T00:35:35;5.50;85.13
69776;DHT22;57049;51.450;-2.516;2023-03-01T00:38:01;5.46;85.09
69776;DHT22;57049;51.450;-2.516;2023-03-01T00:40:28;5.43;85.22
69776;DHT22;57049;51.450;-2.516;2023-03-01T00:42:54;5.46;85.49
69776;DHT22;57049;51.450;-2.516;2023-03-01T00:45:20;5.42;85.63
69776;DHT22;57049;51.450;-2.516;2023-03-01T00:47:46;5.39;85.65
69776;DHT22;57049;51.450;-2.516;2023-03-01T00:50:12;5.35;85.93
69776;DHT22;57049;51.450;-2.516;2023-03-01T00:52:38;5.35;85.75
69776;DHT22;57049;51.450;-2.516;2023-03-01T00:55:04;5.39;85.76
69776;DHT22;57049;51.450;-2.516;2023-03-01T00:57:30;5.40;85.38
69776;DHT22;57049;51.450;-2.516;2023-03-01T00:59:56;5.36;85.30
69776;DHT22;57049;51.450;-2.516;2023-03-01T01:02:22;5.39;85.16
69776;DHT22;57049;51.450;-2.516;2023-03-01T01:04:48;5.38;85.33
69776;DHT22;57049;51.450;-2.516;2023-03-01T01:07:14;5.36;85.24
69776;DHT22;57049;51.450;-2.516;2023-03-01T01:09:40;5.36;85.02
69776;DHT22;57049;51.450;-2.516;2023-03-01T01:12:06;5.40;85.26
69776;DHT22;57049;51.450;-2.516;2023-03-01T01:14:32;5.39;84.98
69776;DHT22;57049;51.450;-2.516;2023-03-01T01:16:58;5.35;85.09
69776;DHT22;57049;51.450;-2.516;2023-03-01T01:19:24;5.39;85.00
69776;DHT22;57049;51.450;-2.516;2023-03-01T01:21:50;5.38;84.79
69776;DHT22;57049;51.450;-2.516;2023-03-01T01:24:16;5.35;84.79
69776;DHT22;57049;51.450;-2.516;2023-03-01T01:26:42;5.36;84.49
69776;DHT22;57049;51.450;-2.516;2023-03-01T01:29:09;5.34;84.53
69776;DHT22;57049;51.450;-2.516;2023-03-01T01:31:36;5.36;84.26
69776;DHT22;57049;51.450;-2.516;2023-03-01T01:34:04;5.29;84.61
69776;DHT22;57049;51.450;-2.516;2023-03-01T01:36:31;5.31;84.76
69776;DHT22;57049;51.450;-2.516;2023-03-01T01:38:56;5.31;85.16
69776;DHT22;57049;51.450;-2.516;2023-03-01T01:41:23;5.34;85.05
69776;DHT22;57049;51.450;-2.516;2023-03-01T01:44:11;5.25;85.38
69776;DHT22;57049;51.450;-2.516;2023-03-01T01:46:39;5.18;85.67
69776;DHT22;57049;51.450;-2.516;2023-03-01T01:49:11;5.28;85.60
69776;DHT22;57049;51.450;-2.516;2023-03-01T01:51:43;5.22;85.98
69776;DHT22;57049;51.450;-2.516;2023-03-01T01:54:18;5.18;86.21
69776;DHT22;57049;51.450;-2.516;2023-03-01T01:56:49;5.21;86.35
69776;DHT22;57049;51.450;-2.516;2023-03-01T01:59:16;5.15;86.21
69776;DHT22;57049;51.450;-2.516;2023-03-01T02:01:42;5.11;86.53
69776;DHT22;57049;51.450;-2.516;2023-03-01T02:04:08;5.18;86.63
69776;DHT22;57049;51.450;-2.516;2023-03-01T02:06:38;5.12;86.85
69776;DHT22;57049;51.450;-2.516;2023-03-01T02:09:08;5.09;87.06
69776;DHT22;57049;51.450;-2.516;2023-03-01T02:11:36;5.09;87.14
69776;DHT22;57049;51.450;-2.516;2023-03-01T02:14:03;5.04;87.22
69776;DHT22;57049;51.450;-2.516;2023-03-01T02:16:29;5.05;87.46
69776;DHT22;57049;51.450;-2.516;2023-03-01T02:18:56;4.96;88.16
69776;DHT22;57049;51.450;-2.516;2023-03-01T02:21:34;4.96;88.72
69776;DHT22;57049;51.450;-2.516;2023-03-01T02:24:37;4.94;89.47
69776;DHT22;57049;51.450;-2.516;2023-03-01T02:27:06;4.95;90.18
69776;DHT22;57049;51.450;-2.516;2023-03-01T02:29:31;4.91;91.04
69776;DHT22;57049;51.450;-2.516;2023-03-01T02:31:59;4.92;91.46
69776;DHT22;57049;51.450;-2.516;2023-03-01T02:34:27;4.83;92.41
69776;DHT22;57049;51.450;-2.516;2023-03-01T02:37:01;4.80;92.78
69776;DHT22;57049;51.450;-2.516;2023-03-01T02:39:48;4.75;93.20
69776;DHT22;57049;51.450;-2.516;2023-03-01T02:42:20;4.70;93.48
69776;DHT22;57049;51.450;-2.516;2023-03-01T02:44:49;4.70;93.45
69776;DHT22;57049;51.450;-2.516;2023-03-01T02:47:14;4.64;93.54
69776;DHT22;57049;51.450;-2.516;2023-03-01T02:49:39;4.68;93.38
69776;DHT22;57049;51.450;-2.516;2023-03-01T02:52:34;4.67;93.31
69776;DHT22;57049;51.450;-2.516;2023-03-01T02:55:06;4.70;92.89
69776;DHT22;57049;51.450;-2.516;2023-03-01T02:57:34;4.70;92.46
69776;DHT22;57049;51.450;-2.516;2023-03-01T03:00:08;4.73;92.18
69776;DHT22;57049;51.450;-2.516;2023-03-01T03:02:35;4.68;92.05
69776;DHT22;57049;51.450;-2.516;2023-03-01T03:05:10;4.71;91.47
69776;DHT22;57049;51.450;-2.516;2023-03-01T03:07:40;4.70;90.84
69776;DHT22;57049;51.450;-2.516;2023-03-01T03:10:08;4.65;90.22
69776;DHT22;57049;51.450;-2.516;2023-03-01T03:12:37;4.71;88.45
69776;DHT22;57049;51.450;-2.516;2023-03-01T03:15:04;4.75;88.15
69776;DHT22;57049;51.450;-2.516;2023-03-01T03:17:35;4.77;88.51
69776;DHT22;57049;51.450;-2.516;2023-03-01T03:20:01;4.78;88.66
69776;DHT22;57049;51.450;-2.516;2023-03-01T03:22:28;4.87;88.91
69776;DHT22;57049;51.450;-2.516;2023-03-01T03:24:53;4.83;88.99
69776;DHT22;57049;51.450;-2.516;2023-03-01T03:27:19;4.84;89.12
69776;DHT22;57049;51.450;-2.516;2023-03-01T03:29:44;4.85;89.08
69776;DHT22;57049;51.450;-2.516;2023-03-01T03:32:10;4.87;89.02
69776;DHT22;57049;51.450;-2.516;2023-03-01T03:34:35;4.78;89.45
69776;DHT22;57049;51.450;-2.516;2023-03-01T03:37:01;4.75;89.90
69776;DHT22;57049;51.450;-2.516;2023-03-01T03:39:26;4.77;90.00
69776;DHT22;57049;51.450;-2.516;2023-03-01T03:41:53;4.85;90.13
69776;DHT22;57049;51.450;-2.516;2023-03-01T03:44:19;4.88;90.00
69776;DHT22;57049;51.450;-2.516;2023-03-01T03:46:44;4.78;90.44
69776;DHT22;57049;51.450;-2.516;2023-03-01T03:49:10;4.77;90.80
69776;DHT22;57049;51.450;-2.516;2023-03-01T03:51:36;4.84;90.91
69776;DHT22;57049;51.450;-2.516;2023-03-01T03:54:01;4.84;90.32
69776;DHT22;57049;51.450;-2.516;2023-03-01T03:56:27;4.78;90.72
69776;DHT22;57049;51.450;-2.516;2023-03-01T03:58:52;4.80;90.64
69776;DHT22;57049;51.450;-2.516;2023-03-01T04:01:18;4.78;90.90
69776;DHT22;57049;51.450;-2.516;2023-03-01T04:03:44;4.84;90.70
69776;DHT22;57049;51.450;-2.516;2023-03-01T04:06:13;4.81;90.69
69776;DHT22;57049;51.450;-2.516;2023-03-01T04:08:39;4.78;90.65
69776;DHT22;57049;51.450;-2.516;2023-03-01T04:11:06;4.84;90.63
69776;DHT22;57049;51.450;-2.516;2023-03-01T04:13:51;4.84;90.58
69776;DHT22;57049;51.450;-2.516;2023-03-01T04:16:17;4.78;90.49
69776;DHT22;57049;51.450;-2.516;2023-03-01T04:18:43;4.85;90.59
69776;DHT22;57049;51.450;-2.516;2023-03-01T04:21:09;4.88;90.56
69776;DHT22;57049;51.450;-2.516;2023-03-01T04:23:35;4.85;90.54
69776;DHT22;57049;51.450;-2.516;2023-03-01T04:26:01;4.83;90.30
69776;DHT22;57049;51.450;-2.516;2023-03-01T04:28:32;4.81;90.23
69776;DHT22;57049;51.450;-2.516;2023-03-01T04:31:03;4.91;90.15
69776;DHT22;57049;51.450;-2.516;2023-03-01T04:33:48;4.83;90.30
69776;DHT22;57049;51.450;-2.516;2023-03-01T04:36:15;4.81;90.52
69776;DHT22;57049;51.450;-2.516;2023-03-01T04:38:41;4.78;90.36
69776;DHT22;57049;51.450;-2.516;2023-03-01T04:41:09;4.78;90.54
69776;DHT22;57049;51.450;-2.516;2023-03-01T04:43:37;4.80;90.49
69776;DHT22;57049;51.450;-2.516;2023-03-01T04:46:05;4.74;90.44
69776;DHT22;57049;51.450;-2.516;2023-03-01T04:48:31;4.73;90.55
69776;DHT22;57049;51.450;-2.516;2023-03-01T04:50:58;4.74;90.56
69776;DHT22;57049;51.450;-2.516;2023-03-01T04:53:24;4.74;90.65
69776;DHT22;57049;51.450;-2.516;2023-03-01T04:55:50;4.91;90.33
69776;DHT22;57049;51.450;-2.516;2023-03-01T04:58:16;4.78;90.53
69776;DHT22;57049;51.450;-2.516;2023-03-01T05:00:41;4.71;90.79
69776;DHT22;57049;51.450;-2.516;2023-03-01T05:03:08;4.68;90.95
69776;DHT22;57049;51.450;-2.516;2023-03-01T05:05:37;4.65;91.08
69776;DHT22;57049;51.450;-2.516;2023-03-01T05:08:05;4.65;91.05
69776;DHT22;57049;51.450;-2.516;2023-03-01T05:10:33;4.68;91.06
69776;DHT22;57049;51.450;-2.516;2023-03-01T05:13:01;4.67;91.15
69776;DHT22;57049;51.450;-2.516;2023-03-01T05:15:28;4.70;91.02
69776;DHT22;57049;51.450;-2.516;2023-03-01T05:17:56;4.65;91.02
69776;DHT22;57049;51.450;-2.516;2023-03-01T05:20:24;4.65;91.06
69776;DHT22;57049;51.450;-2.516;2023-03-01T05:22:50;4.68;91.09
69776;DHT22;57049;51.450;-2.516;2023-03-01T05:25:16;4.64;91.13
69776;DHT22;57049;51.450;-2.516;2023-03-01T05:27:42;4.60;91.21
69776;DHT22;57049;51.450;-2.516;2023-03-01T05:30:08;4.63;91.31
69776;DHT22;57049;51.450;-2.516;2023-03-01T05:32:42;4.64;91.46
69776;DHT22;57049;51.450;-2.516;2023-03-01T05:35:10;4.57;91.59
69776;DHT22;57049;51.450;-2.516;2023-03-01T05:37:42;4.52;92.02
69776;DHT22;57049;51.450;-2.516;2023-03-01T05:40:11;4.58;92.29
69776;DHT22;57049;51.450;-2.516;2023-03-01T05:42:52;4.57;92.75
69776;DHT22;57049;51.450;-2.516;2023-03-01T05:45:19;4.52;93.00
69776;DHT22;57049;51.450;-2.516;2023-03-01T05:47:46;4.43;93.70
69776;DHT22;57049;51.450;-2.516;2023-03-01T05:50:15;4.46;93.84
69776;DHT22;57049;51.450;-2.516;2023-03-01T05:52:49;4.46;94.09
69776;DHT22;57049;51.450;-2.516;2023-03-01T05:55:19;4.39;94.45
69776;DHT22;57049;51.450;-2.516;2023-03-01T05:57:46;4.36;94.83
69776;DHT22;57049;51.450;-2.516;2023-03-01T06:00:13;4.39;94.93
69776;DHT22;57049;51.450;-2.516;2023-03-01T06:02:39;4.40;94.94
69776;DHT22;57049;51.450;-2.516;2023-03-01T06:05:06;4.44;94.86
69776;DHT22;57049;51.450;-2.516;2023-03-01T06:07:32;4.40;95.05
69776;DHT22;57049;51.450;-2.516;2023-03-01T06:09:58;4.42;95.00
69776;DHT22;57049;51.450;-2.516;2023-03-01T06:12:23;4.40;95.17
69776;DHT22;57049;51.450;-2.516;2023-03-01T06:14:49;4.40;95.22
69776;DHT22;57049;51.450;-2.516;2023-03-01T06:17:14;4.43;95.36
69776;DHT22;57049;51.450;-2.516;2023-03-01T06:19:40;4.43;95.42
69776;DHT22;57049;51.450;-2.516;2023-03-01T06:22:05;4.39;95.86
69776;DHT22;57049;51.450;-2.516;2023-03-01T06:24:31;4.40;96.10
69776;DHT22;57049;51.450;-2.516;2023-03-01T06:26:56;4.46;95.99
69776;DHT22;57049;51.450;-2.516;2023-03-01T06:29:22;4.36;96.29
69776;DHT22;57049;51.450;-2.516;2023-03-01T06:31:48;4.34;96.48
69776;DHT22;57049;51.450;-2.516;2023-03-01T06:34:14;4.29;96.99
69776;DHT22;57049;51.450;-2.516;2023-03-01T06:36:40;4.29;97.31
69776;DHT22;57049;51.450;-2.516;2023-03-01T06:39:06;4.20;97.71
69776;DHT22;57049;51.450;-2.516;2023-03-01T06:41:31;4.22;97.96
69776;DHT22;57049;51.450;-2.516;2023-03-01T06:43:58;4.23;98.19
69776;DHT22;57049;51.450;-2.516;2023-03-01T06:46:24;4.28;98.22
69776;DHT22;57049;51.450;-2.516;2023-03-01T06:48:49;4.26;98.19
69776;DHT22;57049;51.450;-2.516;2023-03-01T06:51:15;4.32;97.98
69776;DHT22;57049;51.450;-2.516;2023-03-01T06:53:40;4.29;97.92
69776;DHT22;57049;51.450;-2.516;2023-03-01T06:56:06;4.20;97.79
69776;DHT22;57049;51.450;-2.516;2023-03-01T06:58:31;4.24;97.80
69776;DHT22;57049;51.450;-2.516;2023-03-01T07:00:57;4.32;97.57
69776;DHT22;57049;51.450;-2.516;2023-03-01T07:03:22;4.33;97.59
69776;DHT22;57049;51.450;-2.516;2023-03-01T07:05:51;4.30;97.36
69776;DHT22;57049;51.450;-2.516;2023-03-01T07:08:18;4.29;97.40
69776;DHT22;57049;51.450;-2.516;2023-03-01T07:10:44;4.36;97.30
69776;DHT22;57049;51.450;-2.516;2023-03-01T07:13:09;4.36;97.16
69776;DHT22;57049;51.450;-2.516;2023-03-01T07:15:35;4.39;97.02
69776;DHT22;57049;51.450;-2.516;2023-03-01T07:18:01;4.40;96.83
69776;DHT22;57049;51.450;-2.516;2023-03-01T07:20:26;4.34;96.47
69776;DHT22;57049;51.450;-2.516;2023-03-01T07:22:55;4.40;96.52
69776;DHT22;57049;51.450;-2.516;2023-03-01T07:25:24;4.42;95.94
69776;DHT22;57049;51.450;-2.516;2023-03-01T07:27:51;4.43;95.89
69776;DHT22;57049;51.450;-2.516;2023-03-01T07:30:16;4.53;95.67
69776;DHT22;57049;51.450;-2.516;2023-03-01T07:32:42;4.53;95.07
69776;DHT22;57049;51.450;-2.516;2023-03-01T07:35:08;4.58;95.27
69776;DHT22;57049;51.450;-2.516;2023-03-01T07:37:33;4.64;94.99
69776;DHT22;57049;51.450;-2.516;2023-03-01T07:39:59;4.67;94.14
69776;DHT22;57049;51.450;-2.516;2023-03-01T07:42:24;4.71;93.42
69776;DHT22;57049;51.450;-2.516;2023-03-01T07:44:50;4.73;93.19
69776;DHT22;57049;51.450;-2.516;2023-03-01T07:47:15;4.83;92.76
69776;DHT22;57049;51.450;-2.516;2023-03-01T07:49:41;4.89;92.17
69776;DHT22;57049;51.450;-2.516;2023-03-01T07:52:09;4.91;92.43
69776;DHT22;57049;51.450;-2.516;2023-03-01T07:54:35;4.94;92.24
69776;DHT22;57049;51.450;-2.516;2023-03-01T07:57:00;4.92;91.83
69776;DHT22;57049;51.450;-2.516;2023-03-01T07:59:26;4.85;91.33
69776;DHT22;57049;51.450;-2.516;2023-03-01T08:01:57;4.91;91.72
69776;DHT22;57049;51.450;-2.516;2023-03-01T08:04:23;5.01;91.20
69776;DHT22;57049;51.450;-2.516;2023-03-01T08:06:50;4.98;91.03
69776;DHT22;57049;51.450;-2.516;2023-03-01T08:09:16;5.07;91.01
69776;DHT22;57049;51.450;-2.516;2023-03-01T08:11:42;5.16;90.39
69776;DHT22;57049;51.450;-2.516;2023-03-01T08:14:07;5.22;89.88
69776;DHT22;57049;51.450;-2.516;2023-03-01T08:16:33;5.24;89.87
69776;DHT22;57049;51.450;-2.516;2023-03-01T08:19:07;5.28;90.17
69776;DHT22;57049;51.450;-2.516;2023-03-01T08:21:33;5.31;89.60
69776;DHT22;57049;51.450;-2.516;2023-03-01T08:24:03;5.38;89.39
69776;DHT22;57049;51.450;-2.516;2023-03-01T08:26:30;5.39;89.21
69776;DHT22;57049;51.450;-2.516;2023-03-01T08:28:55;5.42;89.27
69776;DHT22;57049;51.450;-2.516;2023-03-01T08:31:30;5.56;88.73
69776;DHT22;57049;51.450;-2.516;2023-03-01T08:33:58;5.47;88.70
69776;DHT22;57049;51.450;-2.516;2023-03-01T08:36:29;5.63;88.71
69776;DHT22;57049;51.450;-2.516;2023-03-01T08:38:55;5.57;87.89
69776;DHT22;57049;51.450;-2.516;2023-03-01T08:41:21;5.73;88.14
69776;DHT22;57049;51.450;-2.516;2023-03-01T08:43:47;5.74;87.41
69776;DHT22;57049;51.450;-2.516;2023-03-01T08:46:13;5.83;87.45
69776;DHT22;57049;51.450;-2.516;2023-03-01T08:48:42;5.86;87.76
69776;DHT22;57049;51.450;-2.516;2023-03-01T08:51:09;5.74;88.58
69776;DHT22;57049;51.450;-2.516;2023-03-01T08:53:34;5.56;89.46
69776;DHT22;57049;51.450;-2.516;2023-03-01T08:56:00;5.57;89.82
69776;DHT22;57049;51.450;-2.516;2023-03-01T08:58:28;5.65;89.88
69776;DHT22;57049;51.450;-2.516;2023-03-01T09:00:53;5.57;90.14
69776;DHT22;57049;51.450;-2.516;2023-03-01T09:03:19;5.69;90.10
69776;DHT22;57049;51.450;-2.516;2023-03-01T09:05:44;5.55;90.12
69776;DHT22;57049;51.450;-2.516;2023-03-01T09:08:11;5.67;90.40
69776;DHT22;57049;51.450;-2.516;2023-03-01T09:10:39;5.77;90.02
69776;DHT22;57049;51.450;-2.516;2023-03-01T09:13:05;5.81;90.03
69776;DHT22;57049;51.450;-2.516;2023-03-01T09:15:30;5.96;89.81
69776;DHT22;57049;51.450;-2.516;2023-03-01T09:17:56;6.18;90.28
69776;DHT22;57049;51.450;-2.516;2023-03-01T09:20:21;6.48;89.82
69776;DHT22;57049;51.450;-2.516;2023-03-01T09:22:47;6.59;89.13
69776;DHT22;57049;51.450;-2.516;2023-03-01T09:25:12;6.58;89.07
69776;DHT22;57049;51.450;-2.516;2023-03-01T09:27:38;6.71;88.30
69776;DHT22;57049;51.450;-2.516;2023-03-01T09:30:03;6.34;88.57
69776;DHT22;57049;51.450;-2.516;2023-03-01T09:32:30;6.29;88.41
69776;DHT22;57049;51.450;-2.516;2023-03-01T09:34:56;6.18;88.95
69776;DHT22;57049;51.450;-2.516;2023-03-01T09:37:35;6.29;88.66
69776;DHT22;57049;51.450;-2.516;2023-03-01T09:40:04;6.53;88.19
69776;DHT22;57049;51.450;-2.516;2023-03-01T09:42:33;6.64;87.75
69776;DHT22;57049;51.450;-2.516;2023-03-01T09:45:05;6.22;88.29
69776;DHT22;57049;51.450;-2.516;2023-03-01T09:47:34;6.08;89.22
69776;DHT22;57049;51.450;-2.516;2023-03-01T09:50:11;6.16;89.21
69776;DHT22;57049;51.450;-2.516;2023-03-01T09:52:47;6.27;88.99
69776;DHT22;57049;51.450;-2.516;2023-03-01T09:55:26;6.28;87.84
69776;DHT22;57049;51.450;-2.516;2023-03-01T09:58:05;6.44;87.33
69776;DHT22;57049;51.450;-2.516;2023-03-01T10:00:47;6.38;86.91
69776;DHT22;57049;51.450;-2.516;2023-03-01T10:03:17;6.31;86.22
69776;DHT22;57049;51.450;-2.516;2023-03-01T10:06:02;6.55;86.82
69776;DHT22;57049;51.450;-2.516;2023-03-01T10:08:49;6.42;87.45
69776;DHT22;57049;51.450;-2.516;2023-03-01T10:11:21;6.42;87.55
69776;DHT22;57049;51.450;-2.516;2023-03-01T10:14:36;6.37;87.64
69776;DHT22;57049;51.450;-2.516;2023-03-01T10:19:45;6.90;86.63
69776;DHT22;57049;51.450;-2.516;2023-03-01T10:22:20;6.88;87.02
69776;DHT22;57049;51.450;-2.516;2023-03-01T10:24:48;6.95;87.05
69776;DHT22;57049;51.450;-2.516;2023-03-01T10:30:09;7.23;80.48
69776;DHT22;57049;51.450;-2.516;2023-03-01T10:32:38;7.00;79.49
69776;DHT22;57049;51.450;-2.516;2023-03-01T10:35:37;6.79;80.65
69776;DHT22;57049;51.450;-2.516;2023-03-01T10:38:08;6.72;81.02
69776;DHT22;57049;51.450;-2.516;2023-03-01T10:40:35;6.85;80.66
69776;DHT22;57049;51.450;-2.516;2023-03-01T10:43:05;7.10;80.51
69776;DHT22;57049;51.450;-2.516;2023-03-01T10:45:37;7.26;80.38
69776;DHT22;57049;51.450;-2.516;2023-03-01T10:50:47;6.73;85.29
69776;DHT22;57049;51.450;-2.516;2023-03-01T10:53:35;6.53;87.17
69776;DHT22;57049;51.450;-2.516;2023-03-01T10:56:13;6.67;87.30
69776;DHT22;57049;51.450;-2.516;2023-03-01T10:59:00;6.72;87.73
69776;DHT22;57049;51.450;-2.516;2023-03-01T11:01:34;6.56;87.79
69776;DHT22;57049;51.450;-2.516;2023-03-01T11:04:18;6.68;87.27
69776;DHT22;57049;51.450;-2.516;2023-03-01T11:06:58;6.92;86.54
69776;DHT22;57049;51.450;-2.516;2023-03-01T11:09:24;6.89;85.88
69776;DHT22;57049;51.450;-2.516;2023-03-01T11:11:55;6.97;85.59
69776;DHT22;57049;51.450;-2.516;2023-03-01T11:14:33;6.79;86.30
69776;DHT22;57049;51.450;-2.516;2023-03-01T11:17:20;6.68;85.50
69776;DHT22;57049;51.450;-2.516;2023-03-01T11:20:04;6.68;86.00
69776;DHT22;57049;51.450;-2.516;2023-03-01T11:22:34;6.49;87.90
69776;DHT22;57049;51.450;-2.516;2023-03-01T11:25:01;6.45;88.60
69776;DHT22;57049;51.450;-2.516;2023-03-01T11:27:40;6.56;89.07
69776;DHT22;57049;51.450;-2.516;2023-03-01T11:30:24;6.92;89.24
69776;DHT22;57049;51.450;-2.516;2023-03-01T11:35:27;6.41;90.04
69776;DHT22;57049;51.450;-2.516;2023-03-01T11:40:41;6.48;90.40
69776;DHT22;57049;51.450;-2.516;2023-03-01T11:48:57;6.68;91.25
69776;DHT22;57049;51.450;-2.516;2023-03-01T11:59:57;7.28;89.45
69776;DHT22;57049;51.450;-2.516;2023-03-01T12:02:54;7.20;86.69
69776;DHT22;57049;51.450;-2.516;2023-03-01T12:12:27;7.24;86.25
69776;DHT22;57049;51.450;-2.516;2023-03-01T12:18:34;7.51;84.34
69776;DHT22;57049;51.450;-2.516;2023-03-01T12:29:39;7.91;82.46
69776;DHT22;57049;51.450;-2.516;2023-03-01T12:32:28;7.71;81.98
69776;DHT22;57049;51.450;-2.516;2023-03-01T12:40:46;7.41;80.94
69776;DHT22;57049;51.450;-2.516;2023-03-01T12:43:36;7.65;80.85
69776;DHT22;57049;51.450;-2.516;2023-03-01T12:49:16;7.92;80.88
69776;DHT22;57049;51.450;-2.516;2023-03-01T12:54:49;7.71;81.41
69776;DHT22;57049;51.450;-2.516;2023-03-01T12:57:37;7.71;81.25
69776;DHT22;57049;51.450;-2.516;2023-03-01T13:00:22;7.48;82.11
69776;DHT22;57049;51.450;-2.516;2023-03-01T13:06:07;7.57;82.43
69776;DHT22;57049;51.450;-2.516;2023-03-01T13:08:42;7.51;82.60
69776;DHT22;57049;51.450;-2.516;2023-03-01T13:11:20;7.24;83.68
69776;DHT22;57049;51.450;-2.516;2023-03-01T13:16:48;6.97;85.84
69776;DHT22;57049;51.450;-2.516;2023-03-01T13:19:19;6.95;87.19
69776;DHT22;57049;51.450;-2.516;2023-03-01T13:21:46;6.95;87.04
69776;DHT22;57049;51.450;-2.516;2023-03-01T13:29:52;7.24;87.30
69776;DHT22;57049;51.450;-2.516;2023-03-01T13:32:23;7.38;87.35
69776;DHT22;57049;51.450;-2.516;2023-03-01T13:35:02;7.54;87.50
69776;DHT22;57049;51.450;-2.516;2023-03-01T13:37:31;7.64;86.92
69776;DHT22;57049;51.450;-2.516;2023-03-01T13:40:01;7.53;86.06
69776;DHT22;57049;51.450;-2.516;2023-03-01T13:42:45;7.43;85.69
69776;DHT22;57049;51.450;-2.516;2023-03-01T13:45:25;7.53;85.13
69776;DHT22;57049;51.450;-2.516;2023-03-01T13:48:09;7.43;84.15
69776;DHT22;57049;51.450;-2.516;2023-03-01T13:50:49;7.24;84.69
69776;DHT22;57049;51.450;-2.516;2023-03-01T13:53:22;7.27;85.22
69776;DHT22;57049;51.450;-2.516;2023-03-01T13:55:55;7.09;85.19
69776;DHT22;57049;51.450;-2.516;2023-03-01T13:58:29;6.95;86.95
69776;DHT22;57049;51.450;-2.516;2023-03-01T14:00:58;6.83;88.65
69776;DHT22;57049;51.450;-2.516;2023-03-01T14:03:25;6.69;89.54
69776;DHT22;57049;51.450;-2.516;2023-03-01T14:06:13;6.64;90.75
69776;DHT22;57049;51.450;-2.516;2023-03-01T14:08:42;6.58;91.13
69776;DHT22;57049;51.450;-2.516;2023-03-01T14:11:35;6.65;92.45
69776;DHT22;57049;51.450;-2.516;2023-03-01T14:19:47;6.96;94.26
69776;DHT22;57049;51.450;-2.516;2023-03-01T14:22:25;6.73;91.18
69776;DHT22;57049;51.450;-2.516;2023-03-01T14:25:06;6.75;91.33
69776;DHT22;57049;51.450;-2.516;2023-03-01T14:27:42;6.88;91.69
69776;DHT22;57049;51.450;-2.516;2023-03-01T14:30:15;7.00;91.29
69776;DHT22;57049;51.450;-2.516;2023-03-01T14:32:42;7.10;90.89
69776;DHT22;57049;51.450;-2.516;2023-03-01T14:35:23;7.10;89.56
69776;DHT22;57049;51.450;-2.516;2023-03-01T14:37:49;7.06;89.26
69776;DHT22;57049;51.450;-2.516;2023-03-01T14:40:22;7.19;89.17
69776;DHT22;57049;51.450;-2.516;2023-03-01T14:42:49;7.09;88.39
69776;DHT22;57049;51.450;-2.516;2023-03-01T14:45:14;7.20;89.29
69776;DHT22;57049;51.450;-2.516;2023-03-01T14:47:45;7.24;88.77
69776;DHT22;57049;51.450;-2.516;2023-03-01T14:50:28;7.24;88.42
69776;DHT22;57049;51.450;-2.516;2023-03-01T14:53:00;7.53;89.44
69776;DHT22;57049;51.450;-2.516;2023-03-01T14:57:56;7.54;86.95
69776;DHT22;57049;51.450;-2.516;2023-03-01T15:00:29;7.38;87.63
69776;DHT22;57049;51.450;-2.516;2023-03-01T15:03:00;7.22;87.46
69776;DHT22;57049;51.450;-2.516;2023-03-01T15:05:31;7.20;87.95
69776;DHT22;57049;51.450;-2.516;2023-03-01T15:07:59;7.09;88.04
69776;DHT22;57049;51.450;-2.516;2023-03-01T15:10:27;7.22;89.27
69776;DHT22;57049;51.450;-2.516;2023-03-01T15:12:54;7.28;88.39
69776;DHT22;57049;51.450;-2.516;2023-03-01T15:17:55;7.44;88.56
69776;DHT22;57049;51.450;-2.516;2023-03-01T15:20:25;7.30;87.55
69776;DHT22;57049;51.450;-2.516;2023-03-01T15:22:52;7.31;87.58
69776;DHT22;57049;51.450;-2.516;2023-03-01T15:25:21;7.33;87.57
69776;DHT22;57049;51.450;-2.516;2023-03-01T15:27:50;7.28;88.19
69776;DHT22;57049;51.450;-2.516;2023-03-01T15:30:23;7.24;88.91
69776;DHT22;57049;51.450;-2.516;2023-03-01T15:35:42;7.12;88.38
69776;DHT22;57049;51.450;-2.516;2023-03-01T15:38:50;7.14;88.84
69776;DHT22;57049;51.450;-2.516;2023-03-01T15:41:36;7.24;89.11
69776;DHT22;57049;51.450;-2.516;2023-03-01T15:44:26;7.27;88.50
69776;DHT22;57049;51.450;-2.516;2023-03-01T15:46:52;7.33;88.77
69776;DHT22;57049;51.450;-2.516;2023-03-01T15:51:58;7.34;87.89
69776;DHT22;57049;51.450;-2.516;2023-03-01T15:54:27;7.43;87.93
69776;DHT22;57049;51.450;-2.516;2023-03-01T15:56:53;7.41;87.54
69776;DHT22;57049;51.450;-2.516;2023-03-01T15:59:18;7.44;87.50
69776;DHT22;57049;51.450;-2.516;2023-03-01T16:01:44;7.41;87.00
69776;DHT22;57049;51.450;-2.516;2023-03-01T16:04:11;7.46;86.22
69776;DHT22;57049;51.450;-2.516;2023-03-01T16:06:41;7.41;85.47
69776;DHT22;57049;51.450;-2.516;2023-03-01T16:09:07;7.46;85.76
69776;DHT22;57049;51.450;-2.516;2023-03-01T16:11:35;7.44;85.64
69776;DHT22;57049;51.450;-2.516;2023-03-01T16:14:02;7.41;86.19
69776;DHT22;57049;51.450;-2.516;2023-03-01T16:16:28;7.47;86.40
69776;DHT22;57049;51.450;-2.516;2023-03-01T16:18:53;7.46;86.62
69776;DHT22;57049;51.450;-2.516;2023-03-01T16:21:24;7.47;87.16
69776;DHT22;57049;51.450;-2.516;2023-03-01T16:23:50;7.44;87.67
69776;DHT22;57049;51.450;-2.516;2023-03-01T16:26:17;7.38;87.32
69776;DHT22;57049;51.450;-2.516;2023-03-01T16:28:44;7.46;87.58
69776;DHT22;57049;51.450;-2.516;2023-03-01T16:31:19;7.34;87.25
69776;DHT22;57049;51.450;-2.516;2023-03-01T16:33:49;7.28;87.21
69776;DHT22;57049;51.450;-2.516;2023-03-01T16:36:19;7.34;87.44
69776;DHT22;57049;51.450;-2.516;2023-03-01T16:38:45;7.23;86.96
69776;DHT22;57049;51.450;-2.516;2023-03-01T16:41:13;7.20;87.28
69776;DHT22;57049;51.450;-2.516;2023-03-01T16:43:42;7.19;87.76
69776;DHT22;57049;51.450;-2.516;2023-03-01T16:46:21;7.23;87.51
69776;DHT22;57049;51.450;-2.516;2023-03-01T16:48:49;7.26;87.53
69776;DHT22;57049;51.450;-2.516;2023-03-01T16:51:15;7.22;87.48
69776;DHT22;57049;51.450;-2.516;2023-03-01T16:53:41;7.13;87.83
69776;DHT22;57049;51.450;-2.516;2023-03-01T16:56:09;7.10;87.77
69776;DHT22;57049;51.450;-2.516;2023-03-01T16:58:36;7.09;88.47
69776;DHT22;57049;51.450;-2.516;2023-03-01T17:01:15;7.14;88.11
69776;DHT22;57049;51.450;-2.516;2023-03-01T17:03:41;7.12;88.21
69776;DHT22;57049;51.450;-2.516;2023-03-01T17:06:13;7.04;87.76
69776;DHT22;57049;51.450;-2.516;2023-03-01T17:08:39;7.09;88.01
69776;DHT22;57049;51.450;-2.516;2023-03-01T17:13:33;7.00;86.83
69776;DHT22;57049;51.450;-2.516;2023-03-01T17:15:59;6.95;87.24
69776;DHT22;57049;51.450;-2.516;2023-03-01T17:18:25;6.99;87.81